sensor_id;sensor_type;location;lat;lon;timestamp;P1;durP1;ratioP1;P2;durP2;ratioP2
21943;SDS011;11136;48.778;9.126;2024-03-07T00:00:27;36.40;;;22.15;;
21943;SDS011;11136;48.778;9.126;2024-03-07T00:02:53;33.42;;;20.70;;
21943;SDS011;11136;48.778;9.126;2024-03-07T00:05:19;32.72;;;19.80;;
21943;SDS011;11136;48.778;9.126;2024-03-07T00:07:46;34.90;;;20.13;;
21943;SDS011;11136;48.778;9.126;2024-03-07T00:10:12;29.75;;;19.90;;
21943;SDS011;11136;48.778;9.126;2024-03-07T00:12:38;31.02;;;20.55;;
21943;SDS011;11136;48.778;9.126;2024-03-07T00:15:06;32.72;;;19.65;;
21943;SDS011;11136;48.778;9.126;2024-03-07T00:17:32;36.90;;;20.55;;
21943;SDS011;11136;48.778;9.126;2024-03-07T00:19:58;33.22;;;20.73;;
21943;SDS011;11136;48.778;9.126;2024-03-07T00:22:23;32.92;;;20.60;;
21943;SDS011;11136;48.778;9.126;2024-03-07T00:24:51;33.50;;;20.15;;
21943;SDS011;11136;48.778;9.126;2024-03-07T00:27:17;35.75;;;21.02;;
21943;SDS011;11136;48.778;9.126;2024-03-07T00:29:43;33.88;;;21.25;;
21943;SDS011;11136;48.778;9.126;2024-03-07T00:32:08;34.15;;;20.75;;
21943;SDS011;11136;48.778;9.126;2024-03-07T00:34:35;38.00;;;21.60;;
21943;SDS011;11136;48.778;9.126;2024-03-07T00:37:00;35.85;;;19.52;;
21943;SDS011;11136;48.778;9.126;2024-03-07T00:39:25;34.20;;;20.17;;
21943;SDS011;11136;48.778;9.126;2024-03-07T00:41:51;35.65;;;20.42;;
21943;SDS011;11136;48.778;9.126;2024-03-07T00:44:16;34.53;;;20.17;;
21943;SDS011;11136;48.778;9.126;2024-03-07T00:46:42;31.63;;;20.83;;
21943;SDS011;11136;48.778;9.126;2024-03-07T00:49:07;37.33;;;21.60;;
21943;SDS011;11136;48.778;9.126;2024-03-07T00:51:33;33.80;;;20.20;;
21943;SDS011;11136;48.778;9.126;2024-03-07T00:53:58;37.28;;;21.33;;
21943;SDS011;11136;48.778;9.126;2024-03-07T00:56:24;30.08;;;20.02;;
21943;SDS011;11136;48.778;9.126;2024-03-07T00:58:49;34.53;;;20.10;;
21943;SDS011;11136;48.778;9.126;2024-03-07T01:01:15;32.83;;;19.77;;
21943;SDS011;11136;48.778;9.126;2024-03-07T01:03:41;40.25;;;21.35;;
21943;SDS011;11136;48.778;9.126;2024-03-07T01:06:06;35.90;;;21.30;;
21943;SDS011;11136;48.778;9.126;2024-03-07T01:08:34;35.70;;;21.42;;
21943;SDS011;11136;48.778;9.126;2024-03-07T01:11:01;33.20;;;20.73;;
21943;SDS011;11136;48.778;9.126;2024-03-07T01:13:34;38.17;;;22.08;;
21943;SDS011;11136;48.778;9.126;2024-03-07T01:16:03;36.38;;;22.35;;
21943;SDS011;11136;48.778;9.126;2024-03-07T01:18:28;33.17;;;20.60;;
21943;SDS011;11136;48.778;9.126;2024-03-07T01:20:53;36.00;;;21.77;;
21943;SDS011;11136;48.778;9.126;2024-03-07T01:23:20;33.70;;;21.83;;
21943;SDS011;11136;48.778;9.126;2024-03-07T01:25:45;38.60;;;22.38;;
21943;SDS011;11136;48.778;9.126;2024-03-07T01:28:10;38.65;;;22.17;;
21943;SDS011;11136;48.778;9.126;2024-03-07T01:30:39;36.90;;;21.20;;
21943;SDS011;11136;48.778;9.126;2024-03-07T01:33:04;35.80;;;21.38;;
21943;SDS011;11136;48.778;9.126;2024-03-07T01:35:29;37.20;;;22.60;;
21943;SDS011;11136;48.778;9.126;2024-03-07T01:37:54;38.90;;;21.58;;
21943;SDS011;11136;48.778;9.126;2024-03-07T01:40:20;37.42;;;22.35;;
21943;SDS011;11136;48.778;9.126;2024-03-07T01:42:47;39.03;;;21.98;;
21943;SDS011;11136;48.778;9.126;2024-03-07T01:45:14;38.10;;;23.63;;
21943;SDS011;11136;48.778;9.126;2024-03-07T01:47:39;38.33;;;22.35;;
21943;SDS011;11136;48.778;9.126;2024-03-07T01:50:05;38.20;;;22.83;;
21943;SDS011;11136;48.778;9.126;2024-03-07T01:52:33;40.20;;;23.20;;
21943;SDS011;11136;48.778;9.126;2024-03-07T01:54:58;38.17;;;22.58;;
21943;SDS011;11136;48.778;9.126;2024-03-07T01:57:23;40.78;;;22.63;;
21943;SDS011;11136;48.778;9.126;2024-03-07T01:59:50;42.17;;;23.05;;
21943;SDS011;11136;48.778;9.126;2024-03-07T02:02:16;38.17;;;22.38;;
21943;SDS011;11136;48.778;9.126;2024-03-07T02:04:42;37.28;;;23.40;;
21943;SDS011;11136;48.778;9.126;2024-03-07T02:07:08;37.08;;;24.25;;
21943;SDS011;11136;48.778;9.126;2024-03-07T02:09:36;41.75;;;24.25;;
21943;SDS011;11136;48.778;9.126;2024-03-07T02:12:02;41.95;;;24.27;;
21943;SDS011;11136;48.778;9.126;2024-03-07T02:14:27;39.40;;;23.42;;
21943;SDS011;11136;48.778;9.126;2024-03-07T02:16:53;39.03;;;24.83;;
21943;SDS011;11136;48.778;9.126;2024-03-07T02:19:21;41.55;;;23.25;;
21943;SDS011;11136;48.778;9.126;2024-03-07T02:21:47;39.40;;;24.27;;
21943;SDS011;11136;48.778;9.126;2024-03-07T02:24:12;39.40;;;24.27;;
21943;SDS011;11136;48.778;9.126;2024-03-07T02:26:39;41.75;;;23.52;;
21943;SDS011;11136;48.778;9.126;2024-03-07T02:29:04;39.40;;;24.05;;
21943;SDS011;11136;48.778;9.126;2024-03-07T02:31:30;42.92;;;24.13;;
21943;SDS011;11136;48.778;9.126;2024-03-07T02:34:05;36.97;;;21.73;;
21943;SDS011;11136;48.778;9.126;2024-03-07T02:36:32;42.95;;;24.92;;
21943;SDS011;11136;48.778;9.126;2024-03-07T02:38:58;43.45;;;23.77;;
21943;SDS011;11136;48.778;9.126;2024-03-07T02:41:25;37.35;;;23.02;;
21943;SDS011;11136;48.778;9.126;2024-03-07T02:43:50;41.83;;;23.30;;
21943;SDS011;11136;48.778;9.126;2024-03-07T02:46:16;42.60;;;24.05;;
21943;SDS011;11136;48.778;9.126;2024-03-07T02:48:41;39.47;;;24.00;;
21943;SDS011;11136;48.778;9.126;2024-03-07T02:51:07;39.65;;;23.20;;
21943;SDS011;11136;48.778;9.126;2024-03-07T02:53:32;37.42;;;22.80;;
21943;SDS011;11136;48.778;9.126;2024-03-07T02:55:58;40.90;;;23.58;;
21943;SDS011;11136;48.778;9.126;2024-03-07T02:58:24;40.58;;;22.77;;
21943;SDS011;11136;48.778;9.126;2024-03-07T03:00:56;36.55;;;23.30;;
21943;SDS011;11136;48.778;9.126;2024-03-07T03:03:22;40.53;;;22.27;;
21943;SDS011;11136;48.778;9.126;2024-03-07T03:05:48;39.08;;;22.48;;
21943;SDS011;11136;48.778;9.126;2024-03-07T03:08:13;41.58;;;23.27;;
21943;SDS011;11136;48.778;9.126;2024-03-07T03:10:39;37.88;;;22.88;;
21943;SDS011;11136;48.778;9.126;2024-03-07T03:13:04;41.85;;;24.17;;
21943;SDS011;11136;48.778;9.126;2024-03-07T03:15:29;38.00;;;22.63;;
21943;SDS011;11136;48.778;9.126;2024-03-07T03:17:56;40.25;;;24.08;;
21943;SDS011;11136;48.778;9.126;2024-03-07T03:20:24;43.22;;;24.17;;
21943;SDS011;11136;48.778;9.126;2024-03-07T03:22:51;37.83;;;22.42;;
21943;SDS011;11136;48.778;9.126;2024-03-07T03:25:18;37.17;;;22.35;;
21943;SDS011;11136;48.778;9.126;2024-03-07T03:27:44;38.55;;;23.13;;
21943;SDS011;11136;48.778;9.126;2024-03-07T03:30:09;36.00;;;22.35;;
21943;SDS011;11136;48.778;9.126;2024-03-07T03:32:38;40.50;;;22.92;;
21943;SDS011;11136;48.778;9.126;2024-03-07T03:35:04;43.35;;;23.08;;
21943;SDS011;11136;48.778;9.126;2024-03-07T03:37:30;38.35;;;22.63;;
21943;SDS011;11136;48.778;9.126;2024-03-07T03:39:55;39.60;;;23.38;;
21943;SDS011;11136;48.778;9.126;2024-03-07T03:42:21;42.05;;;23.65;;
21943;SDS011;11136;48.778;9.126;2024-03-07T03:44:46;39.05;;;23.30;;
21943;SDS011;11136;48.778;9.126;2024-03-07T03:47:11;43.92;;;23.98;;
21943;SDS011;11136;48.778;9.126;2024-03-07T03:49:37;39.92;;;23.42;;
21943;SDS011;11136;48.778;9.126;2024-03-07T03:52:02;39.53;;;23.55;;
21943;SDS011;11136;48.778;9.126;2024-03-07T03:54:27;40.50;;;25.25;;
21943;SDS011;11136;48.778;9.126;2024-03-07T03:56:53;45.75;;;24.98;;
21943;SDS011;11136;48.778;9.126;2024-03-07T03:59:18;42.60;;;25.30;;
21943;SDS011;11136;48.778;9.126;2024-03-07T04:01:43;38.67;;;23.58;;
21943;SDS011;11136;48.778;9.126;2024-03-07T04:04:10;38.72;;;22.77;;
21943;SDS011;11136;48.778;9.126;2024-03-07T04:06:35;39.60;;;24.20;;
21943;SDS011;11136;48.778;9.126;2024-03-07T04:09:01;47.00;;;25.35;;
21943;SDS011;11136;48.778;9.126;2024-03-07T04:11:26;49.53;;;25.38;;
21943;SDS011;11136;48.778;9.126;2024-03-07T04:13:51;42.78;;;25.10;;
21943;SDS011;11136;48.778;9.126;2024-03-07T04:16:17;41.80;;;25.30;;
21943;SDS011;11136;48.778;9.126;2024-03-07T04:18:42;45.95;;;25.15;;
21943;SDS011;11136;48.778;9.126;2024-03-07T04:21:07;41.08;;;24.92;;
21943;SDS011;11136;48.778;9.126;2024-03-07T04:23:34;45.63;;;25.67;;
21943;SDS011;11136;48.778;9.126;2024-03-07T04:26:00;43.65;;;25.58;;
21943;SDS011;11136;48.778;9.126;2024-03-07T04:28:25;48.03;;;25.98;;
21943;SDS011;11136;48.778;9.126;2024-03-07T04:30:51;46.55;;;25.73;;
21943;SDS011;11136;48.778;9.126;2024-03-07T04:33:18;43.30;;;24.88;;
21943;SDS011;11136;48.778;9.126;2024-03-07T04:35:44;46.40;;;25.25;;
21943;SDS011;11136;48.778;9.126;2024-03-07T04:38:10;43.38;;;24.70;;
21943;SDS011;11136;48.778;9.126;2024-03-07T04:40:40;45.38;;;25.88;;
21943;SDS011;11136;48.778;9.126;2024-03-07T04:43:06;43.40;;;25.50;;
21943;SDS011;11136;48.778;9.126;2024-03-07T04:45:32;41.83;;;24.35;;
21943;SDS011;11136;48.778;9.126;2024-03-07T04:47:59;42.72;;;24.83;;
21943;SDS011;11136;48.778;9.126;2024-03-07T04:50:24;47.13;;;25.80;;
21943;SDS011;11136;48.778;9.126;2024-03-07T04:52:49;47.58;;;25.00;;
21943;SDS011;11136;48.778;9.126;2024-03-07T04:55:15;44.55;;;25.38;;
21943;SDS011;11136;48.778;9.126;2024-03-07T04:57:40;46.33;;;27.13;;
21943;SDS011;11136;48.778;9.126;2024-03-07T05:00:10;43.85;;;25.85;;
21943;SDS011;11136;48.778;9.126;2024-03-07T05:02:40;45.45;;;24.23;;
21943;SDS011;11136;48.778;9.126;2024-03-07T05:05:06;42.80;;;25.25;;
21943;SDS011;11136;48.778;9.126;2024-03-07T05:07:32;48.75;;;27.95;;
21943;SDS011;11136;48.778;9.126;2024-03-07T05:09:57;45.40;;;25.63;;
21943;SDS011;11136;48.778;9.126;2024-03-07T05:12:23;41.25;;;25.48;;
21943;SDS011;11136;48.778;9.126;2024-03-07T05:14:48;44.95;;;24.63;;
21943;SDS011;11136;48.778;9.126;2024-03-07T05:17:13;41.78;;;25.08;;
21943;SDS011;11136;48.778;9.126;2024-03-07T05:19:39;44.22;;;26.65;;
21943;SDS011;11136;48.778;9.126;2024-03-07T05:22:04;45.60;;;26.33;;
21943;SDS011;11136;48.778;9.126;2024-03-07T05:24:30;45.72;;;25.33;;
21943;SDS011;11136;48.778;9.126;2024-03-07T05:26:56;48.25;;;25.83;;
21943;SDS011;11136;48.778;9.126;2024-03-07T05:29:22;45.33;;;25.50;;
21943;SDS011;11136;48.778;9.126;2024-03-07T05:31:47;49.22;;;27.55;;
21943;SDS011;11136;48.778;9.126;2024-03-07T05:34:14;49.53;;;27.98;;
21943;SDS011;11136;48.778;9.126;2024-03-07T05:36:40;48.00;;;27.25;;
21943;SDS011;11136;48.778;9.126;2024-03-07T05:39:12;40.30;;;24.60;;
21943;SDS011;11136;48.778;9.126;2024-03-07T05:41:38;41.80;;;25.77;;
21943;SDS011;11136;48.778;9.126;2024-03-07T05:44:05;43.00;;;25.27;;
21943;SDS011;11136;48.778;9.126;2024-03-07T05:46:34;46.95;;;26.13;;
21943;SDS011;11136;48.778;9.126;2024-03-07T05:49:07;46.60;;;27.25;;
21943;SDS011;11136;48.778;9.126;2024-03-07T05:51:32;41.97;;;25.55;;
21943;SDS011;11136;48.778;9.126;2024-03-07T05:53:58;47.05;;;27.60;;
21943;SDS011;11136;48.778;9.126;2024-03-07T05:56:23;46.00;;;27.08;;
21943;SDS011;11136;48.778;9.126;2024-03-07T05:58:48;50.08;;;26.55;;
21943;SDS011;11136;48.778;9.126;2024-03-07T06:01:13;46.28;;;25.77;;
21943;SDS011;11136;48.778;9.126;2024-03-07T06:03:39;46.33;;;26.30;;
21943;SDS011;11136;48.778;9.126;2024-03-07T06:06:05;46.50;;;24.95;;
21943;SDS011;11136;48.778;9.126;2024-03-07T06:08:33;50.28;;;26.83;;
21943;SDS011;11136;48.778;9.126;2024-03-07T06:10:58;45.88;;;25.65;;
21943;SDS011;11136;48.778;9.126;2024-03-07T06:13:24;46.90;;;26.08;;
21943;SDS011;11136;48.778;9.126;2024-03-07T06:15:49;43.65;;;24.52;;
21943;SDS011;11136;48.778;9.126;2024-03-07T06:18:15;43.55;;;25.23;;
21943;SDS011;11136;48.778;9.126;2024-03-07T06:20:41;45.22;;;25.75;;
21943;SDS011;11136;48.778;9.126;2024-03-07T06:23:07;48.08;;;26.38;;
21943;SDS011;11136;48.778;9.126;2024-03-07T06:25:33;44.92;;;26.58;;
21943;SDS011;11136;48.778;9.126;2024-03-07T06:28:04;52.70;;;28.30;;
21943;SDS011;11136;48.778;9.126;2024-03-07T06:30:34;44.50;;;25.48;;
21943;SDS011;11136;48.778;9.126;2024-03-07T06:33:04;46.05;;;25.55;;
21943;SDS011;11136;48.778;9.126;2024-03-07T06:35:29;43.95;;;25.17;;
21943;SDS011;11136;48.778;9.126;2024-03-07T06:37:55;45.42;;;25.70;;
21943;SDS011;11136;48.778;9.126;2024-03-07T06:40:20;47.83;;;26.08;;
21943;SDS011;11136;48.778;9.126;2024-03-07T06:42:47;40.60;;;24.63;;
21943;SDS011;11136;48.778;9.126;2024-03-07T06:45:16;44.78;;;25.55;;
21943;SDS011;11136;48.778;9.126;2024-03-07T06:47:43;49.20;;;26.08;;
21943;SDS011;11136;48.778;9.126;2024-03-07T06:50:08;48.25;;;27.92;;
21943;SDS011;11136;48.778;9.126;2024-03-07T06:52:35;48.00;;;26.83;;
21943;SDS011;11136;48.778;9.126;2024-03-07T06:55:01;45.08;;;24.73;;
21943;SDS011;11136;48.778;9.126;2024-03-07T06:57:28;47.28;;;26.77;;
21943;SDS011;11136;48.778;9.126;2024-03-07T06:59:54;46.35;;;27.05;;
21943;SDS011;11136;48.778;9.126;2024-03-07T07:02:20;45.70;;;26.15;;
21943;SDS011;11136;48.778;9.126;2024-03-07T07:04:45;42.17;;;25.20;;
21943;SDS011;11136;48.778;9.126;2024-03-07T07:07:13;45.95;;;24.77;;
21943;SDS011;11136;48.778;9.126;2024-03-07T07:09:39;44.08;;;25.30;;
21943;SDS011;11136;48.778;9.126;2024-03-07T07:12:05;39.55;;;23.70;;
21943;SDS011;11136;48.778;9.126;2024-03-07T07:14:31;41.13;;;23.25;;
21943;SDS011;11136;48.778;9.126;2024-03-07T07:16:56;42.55;;;24.27;;
21943;SDS011;11136;48.778;9.126;2024-03-07T07:19:22;43.25;;;24.63;;
21943;SDS011;11136;48.778;9.126;2024-03-07T07:21:47;37.85;;;23.38;;
21943;SDS011;11136;48.778;9.126;2024-03-07T07:24:18;36.10;;;22.45;;
21943;SDS011;11136;48.778;9.126;2024-03-07T07:26:44;38.53;;;22.90;;
21943;SDS011;11136;48.778;9.126;2024-03-07T07:29:10;39.85;;;23.30;;
21943;SDS011;11136;48.778;9.126;2024-03-07T07:31:35;34.33;;;21.95;;
21943;SDS011;11136;48.778;9.126;2024-03-07T07:34:00;38.97;;;21.85;;
21943;SDS011;11136;48.778;9.126;2024-03-07T07:36:26;39.85;;;23.05;;
21943;SDS011;11136;48.778;9.126;2024-03-07T07:38:51;38.10;;;22.45;;
21943;SDS011;11136;48.778;9.126;2024-03-07T07:41:17;34.72;;;21.20;;
21943;SDS011;11136;48.778;9.126;2024-03-07T07:43:42;35.13;;;21.73;;
21943;SDS011;11136;48.778;9.126;2024-03-07T07:46:08;35.33;;;22.30;;
21943;SDS011;11136;48.778;9.126;2024-03-07T07:48:33;35.47;;;21.83;;
21943;SDS011;11136;48.778;9.126;2024-03-07T07:50:59;38.28;;;22.33;;
21943;SDS011;11136;48.778;9.126;2024-03-07T07:53:24;38.65;;;21.75;;
21943;SDS011;11136;48.778;9.126;2024-03-07T07:55:49;33.67;;;20.40;;
21943;SDS011;11136;48.778;9.126;2024-03-07T07:58:15;38.63;;;21.08;;
21943;SDS011;11136;48.778;9.126;2024-03-07T08:00:41;34.17;;;20.85;;
21943;SDS011;11136;48.778;9.126;2024-03-07T08:03:09;33.05;;;19.20;;
21943;SDS011;11136;48.778;9.126;2024-03-07T08:05:36;30.45;;;20.10;;
21943;SDS011;11136;48.778;9.126;2024-03-07T08:08:06;33.05;;;20.33;;
21943;SDS011;11136;48.778;9.126;2024-03-07T08:10:33;35.42;;;20.92;;
21943;SDS011;11136;48.778;9.126;2024-03-07T08:13:00;32.90;;;18.83;;
21943;SDS011;11136;48.778;9.126;2024-03-07T08:15:28;34.28;;;20.15;;
21943;SDS011;11136;48.778;9.126;2024-03-07T08:17:54;33.08;;;19.60;;
21943;SDS011;11136;48.778;9.126;2024-03-07T08:20:20;34.38;;;20.08;;
21943;SDS011;11136;48.778;9.126;2024-03-07T08:22:47;34.95;;;20.83;;
21943;SDS011;11136;48.778;9.126;2024-03-07T08:25:16;30.63;;;19.25;;
21943;SDS011;11136;48.778;9.126;2024-03-07T08:27:44;38.30;;;21.77;;
21943;SDS011;11136;48.778;9.126;2024-03-07T08:30:14;36.10;;;20.35;;
21943;SDS011;11136;48.778;9.126;2024-03-07T08:32:46;35.42;;;20.98;;
21943;SDS011;11136;48.778;9.126;2024-03-07T08:35:14;35.60;;;20.88;;
21943;SDS011;11136;48.778;9.126;2024-03-07T08:37:42;38.00;;;21.50;;
21943;SDS011;11136;48.778;9.126;2024-03-07T08:40:09;34.38;;;20.10;;
21943;SDS011;11136;48.778;9.126;2024-03-07T08:42:38;36.40;;;21.70;;
21943;SDS011;11136;48.778;9.126;2024-03-07T08:45:06;29.25;;;19.25;;
21943;SDS011;11136;48.778;9.126;2024-03-07T08:47:35;35.03;;;20.42;;
21943;SDS011;11136;48.778;9.126;2024-03-07T08:50:00;33.33;;;21.02;;
21943;SDS011;11136;48.778;9.126;2024-03-07T08:52:27;32.40;;;19.52;;
21943;SDS011;11136;48.778;9.126;2024-03-07T08:54:53;37.15;;;20.88;;
21943;SDS011;11136;48.778;9.126;2024-03-07T08:57:19;34.97;;;20.98;;
21943;SDS011;11136;48.778;9.126;2024-03-07T08:59:45;35.75;;;20.45;;
21943;SDS011;11136;48.778;9.126;2024-03-07T09:02:12;33.20;;;19.98;;
21943;SDS011;11136;48.778;9.126;2024-03-07T09:04:37;34.50;;;19.38;;
21943;SDS011;11136;48.778;9.126;2024-03-07T09:07:03;30.27;;;18.08;;
21943;SDS011;11136;48.778;9.126;2024-03-07T09:09:31;33.40;;;20.27;;
21943;SDS011;11136;48.778;9.126;2024-03-07T09:12:02;31.42;;;19.98;;
21943;SDS011;11136;48.778;9.126;2024-03-07T09:14:29;29.08;;;18.88;;
21943;SDS011;11136;48.778;9.126;2024-03-07T09:16:54;32.88;;;19.58;;
21943;SDS011;11136;48.778;9.126;2024-03-07T09:19:20;32.58;;;18.90;;
21943;SDS011;11136;48.778;9.126;2024-03-07T09:21:50;35.55;;;18.92;;
21943;SDS011;11136;48.778;9.126;2024-03-07T09:24:16;32.60;;;20.42;;
21943;SDS011;11136;48.778;9.126;2024-03-07T09:26:41;32.97;;;19.27;;
21943;SDS011;11136;48.778;9.126;2024-03-07T09:29:07;32.22;;;18.60;;
21943;SDS011;11136;48.778;9.126;2024-03-07T09:31:32;29.98;;;18.95;;
21943;SDS011;11136;48.778;9.126;2024-03-07T09:33:58;40.60;;;20.75;;
21943;SDS011;11136;48.778;9.126;2024-03-07T09:36:23;34.83;;;20.70;;
21943;SDS011;11136;48.778;9.126;2024-03-07T09:38:49;34.22;;;20.98;;
21943;SDS011;11136;48.778;9.126;2024-03-07T09:41:15;34.28;;;20.17;;
21943;SDS011;11136;48.778;9.126;2024-03-07T09:43:41;33.65;;;21.10;;
21943;SDS011;11136;48.778;9.126;2024-03-07T09:46:09;32.72;;;19.25;;
21943;SDS011;11136;48.778;9.126;2024-03-07T09:48:35;36.28;;;20.85;;
21943;SDS011;11136;48.778;9.126;2024-03-07T09:51:02;33.45;;;20.73;;
21943;SDS011;11136;48.778;9.126;2024-03-07T09:53:29;31.88;;;20.23;;
21943;SDS011;11136;48.778;9.126;2024-03-07T09:55:55;31.00;;;19.45;;
21943;SDS011;11136;48.778;9.126;2024-03-07T09:58:22;34.08;;;20.38;;
21943;SDS011;11136;48.778;9.126;2024-03-07T10:00:54;30.90;;;19.42;;
21943;SDS011;11136;48.778;9.126;2024-03-07T10:03:21;33.75;;;21.20;;
21943;SDS011;11136;48.778;9.126;2024-03-07T10:05:50;32.45;;;20.05;;
21943;SDS011;11136;48.778;9.126;2024-03-07T10:08:17;34.25;;;21.25;;
21943;SDS011;11136;48.778;9.126;2024-03-07T10:10:46;31.67;;;20.15;;
21943;SDS011;11136;48.778;9.126;2024-03-07T10:13:12;31.75;;;20.30;;
21943;SDS011;11136;48.778;9.126;2024-03-07T10:15:38;35.45;;;20.80;;
21943;SDS011;11136;48.778;9.126;2024-03-07T10:18:06;36.22;;;22.65;;
21943;SDS011;11136;48.778;9.126;2024-03-07T10:20:32;30.70;;;19.17;;
21943;SDS011;11136;48.778;9.126;2024-03-07T10:22:57;38.92;;;20.40;;
21943;SDS011;11136;48.778;9.126;2024-03-07T10:25:23;31.73;;;19.10;;
21943;SDS011;11136;48.778;9.126;2024-03-07T10:27:50;36.15;;;20.05;;
21943;SDS011;11136;48.778;9.126;2024-03-07T10:30:16;26.83;;;17.77;;
21943;SDS011;11136;48.778;9.126;2024-03-07T10:32:51;32.78;;;19.23;;
21943;SDS011;11136;48.778;9.126;2024-03-07T10:35:22;32.45;;;18.55;;
21943;SDS011;11136;48.778;9.126;2024-03-07T10:37:52;35.38;;;17.45;;
21943;SDS011;11136;48.778;9.126;2024-03-07T10:40:25;32.83;;;19.13;;
21943;SDS011;11136;48.778;9.126;2024-03-07T10:42:53;30.55;;;18.98;;
21943;SDS011;11136;48.778;9.126;2024-03-07T10:45:21;35.42;;;20.83;;
21943;SDS011;11136;48.778;9.126;2024-03-07T10:47:49;32.88;;;19.85;;
21943;SDS011;11136;48.778;9.126;2024-03-07T10:59:19;37.45;;;19.40;;
21943;SDS011;11136;48.778;9.126;2024-03-07T11:01:57;33.58;;;19.17;;
21943;SDS011;11136;48.778;9.126;2024-03-07T11:04:29;32.85;;;19.70;;
21943;SDS011;11136;48.778;9.126;2024-03-07T11:06:55;32.88;;;19.88;;
21943;SDS011;11136;48.778;9.126;2024-03-07T11:09:21;30.35;;;19.55;;
21943;SDS011;11136;48.778;9.126;2024-03-07T11:11:49;36.15;;;20.50;;
21943;SDS011;11136;48.778;9.126;2024-03-07T11:14:15;34.45;;;21.80;;
21943;SDS011;11136;48.778;9.126;2024-03-07T11:16:43;32.72;;;20.05;;
21943;SDS011;11136;48.778;9.126;2024-03-07T11:19:26;35.20;;;20.23;;
21943;SDS011;11136;48.778;9.126;2024-03-07T11:21:53;31.45;;;19.45;;
21943;SDS011;11136;48.778;9.126;2024-03-07T11:24:26;34.75;;;20.73;;
21943;SDS011;11136;48.778;9.126;2024-03-07T11:26:56;35.05;;;21.52;;
21943;SDS011;11136;48.778;9.126;2024-03-07T11:29:42;34.67;;;20.10;;
21943;SDS011;11136;48.778;9.126;2024-03-07T11:32:13;36.17;;;20.42;;
21943;SDS011;11136;48.778;9.126;2024-03-07T11:34:43;36.00;;;20.60;;
21943;SDS011;11136;48.778;9.126;2024-03-07T11:37:45;34.33;;;21.13;;
21943;SDS011;11136;48.778;9.126;2024-03-07T11:40:20;38.78;;;22.50;;
21943;SDS011;11136;48.778;9.126;2024-03-07T11:43:00;38.92;;;21.58;;
21943;SDS011;11136;48.778;9.126;2024-03-07T11:45:29;35.17;;;21.85;;
21943;SDS011;11136;48.778;9.126;2024-03-07T11:47:58;35.00;;;20.23;;
21943;SDS011;11136;48.778;9.126;2024-03-07T11:50:29;34.50;;;21.20;;
21943;SDS011;11136;48.778;9.126;2024-03-07T11:52:59;35.90;;;21.33;;
21943;SDS011;11136;48.778;9.126;2024-03-07T11:55:27;35.05;;;21.67;;
21943;SDS011;11136;48.778;9.126;2024-03-07T11:58:14;36.22;;;22.80;;
21943;SDS011;11136;48.778;9.126;2024-03-07T12:00:48;39.28;;;22.25;;
21943;SDS011;11136;48.778;9.126;2024-03-07T12:03:20;39.42;;;21.65;;
21943;SDS011;11136;48.778;9.126;2024-03-07T12:05:46;36.15;;;21.30;;
21943;SDS011;11136;48.778;9.126;2024-03-07T12:08:16;37.50;;;21.48;;
21943;SDS011;11136;48.778;9.126;2024-03-07T12:10:42;34.20;;;19.80;;
21943;SDS011;11136;48.778;9.126;2024-03-07T12:13:09;37.08;;;21.08;;
21943;SDS011;11136;48.778;9.126;2024-03-07T12:15:40;35.42;;;20.63;;
21943;SDS011;11136;48.778;9.126;2024-03-07T12:18:07;33.20;;;19.88;;
21943;SDS011;11136;48.778;9.126;2024-03-07T12:20:38;39.63;;;21.92;;
21943;SDS011;11136;48.778;9.126;2024-03-07T12:23:06;34.25;;;20.58;;
21943;SDS011;11136;48.778;9.126;2024-03-07T12:25:34;35.70;;;21.52;;
21943;SDS011;11136;48.778;9.126;2024-03-07T12:30:36;39.58;;;21.88;;
21943;SDS011;11136;48.778;9.126;2024-03-07T12:33:12;38.28;;;21.35;;
21943;SDS011;11136;48.778;9.126;2024-03-07T12:35:45;33.72;;;20.65;;
21943;SDS011;11136;48.778;9.126;2024-03-07T12:38:15;38.55;;;22.50;;
21943;SDS011;11136;48.778;9.126;2024-03-07T12:40:42;36.33;;;21.27;;
21943;SDS011;11136;48.778;9.126;2024-03-07T12:43:17;37.72;;;21.30;;
21943;SDS011;11136;48.778;9.126;2024-03-07T12:45:48;36.65;;;21.77;;
21943;SDS011;11136;48.778;9.126;2024-03-07T12:48:17;37.85;;;20.40;;
21943;SDS011;11136;48.778;9.126;2024-03-07T12:50:48;35.45;;;20.42;;
21943;SDS011;11136;48.778;9.126;2024-03-07T12:53:22;35.45;;;21.65;;
21943;SDS011;11136;48.778;9.126;2024-03-07T12:55:50;31.23;;;20.55;;
21943;SDS011;11136;48.778;9.126;2024-03-07T12:58:17;37.72;;;21.92;;
21943;SDS011;11136;48.778;9.126;2024-03-07T13:00:43;35.03;;;22.00;;
21943;SDS011;11136;48.778;9.126;2024-03-07T13:03:09;37.90;;;21.30;;
21943;SDS011;11136;48.778;9.126;2024-03-07T13:05:35;39.33;;;23.13;;
21943;SDS011;11136;48.778;9.126;2024-03-07T13:08:05;36.93;;;23.17;;
21943;SDS011;11136;48.778;9.126;2024-03-07T13:10:31;38.22;;;21.95;;
21943;SDS011;11136;48.778;9.126;2024-03-07T13:12:56;39.85;;;23.55;;
21943;SDS011;11136;48.778;9.126;2024-03-07T13:15:22;37.08;;;21.30;;
21943;SDS011;11136;48.778;9.126;2024-03-07T13:17:50;36.80;;;22.13;;
21943;SDS011;11136;48.778;9.126;2024-03-07T13:20:18;40.05;;;21.55;;
21943;SDS011;11136;48.778;9.126;2024-03-07T13:22:46;40.92;;;23.77;;
21943;SDS011;11136;48.778;9.126;2024-03-07T13:25:14;33.28;;;22.15;;
21943;SDS011;11136;48.778;9.126;2024-03-07T13:27:43;39.15;;;23.35;;
21943;SDS011;11136;48.778;9.126;2024-03-07T13:30:16;35.33;;;21.73;;
21943;SDS011;11136;48.778;9.126;2024-03-07T13:32:47;42.35;;;22.08;;
21943;SDS011;11136;48.778;9.126;2024-03-07T13:35:14;38.47;;;23.02;;
21943;SDS011;11136;48.778;9.126;2024-03-07T13:37:40;35.58;;;20.85;;
21943;SDS011;11136;48.778;9.126;2024-03-07T13:40:05;35.95;;;22.48;;
21943;SDS011;11136;48.778;9.126;2024-03-07T13:42:47;39.80;;;21.73;;
21943;SDS011;11136;48.778;9.126;2024-03-07T13:45:13;31.73;;;20.08;;
21943;SDS011;11136;48.778;9.126;2024-03-07T13:47:38;36.50;;;22.98;;
21943;SDS011;11136;48.778;9.126;2024-03-07T13:50:04;38.15;;;20.70;;
21943;SDS011;11136;48.778;9.126;2024-03-07T13:52:36;33.83;;;21.33;;
21943;SDS011;11136;48.778;9.126;2024-03-07T13:55:08;34.28;;;22.77;;
21943;SDS011;11136;48.778;9.126;2024-03-07T14:00:18;32.15;;;20.98;;
21943;SDS011;11136;48.778;9.126;2024-03-07T14:13:50;32.08;;;21.58;;
21943;SDS011;11136;48.778;9.126;2024-03-07T14:16:49;34.75;;;21.90;;
21943;SDS011;11136;48.778;9.126;2024-03-07T14:30:53;36.65;;;22.90;;
21943;SDS011;11136;48.778;9.126;2024-03-07T14:33:32;41.20;;;23.27;;
21943;SDS011;11136;48.778;9.126;2024-03-07T14:36:13;34.50;;;23.65;;
21943;SDS011;11136;48.778;9.126;2024-03-07T14:41:19;34.92;;;23.10;;
21943;SDS011;11136;48.778;9.126;2024-03-07T14:43:48;41.65;;;25.13;;
21943;SDS011;11136;48.778;9.126;2024-03-07T14:46:14;34.92;;;21.90;;
21943;SDS011;11136;48.778;9.126;2024-03-07T14:48:41;38.75;;;24.23;;
21943;SDS011;11136;48.778;9.126;2024-03-07T14:51:07;38.40;;;21.60;;
21943;SDS011;11136;48.778;9.126;2024-03-07T14:53:34;37.30;;;24.25;;
21943;SDS011;11136;48.778;9.126;2024-03-07T14:55:59;34.15;;;22.60;;
21943;SDS011;11136;48.778;9.126;2024-03-07T14:58:26;39.00;;;23.08;;
21943;SDS011;11136;48.778;9.126;2024-03-07T15:00:51;36.05;;;22.08;;